createdAt,value
2019-05-28T00:01:14.699Z,72.97
2019-05-28T00:03:43.901Z,72.58
2019-05-28T00:06:13.099Z,73.41
2019-05-28T00:08:42.324Z,73.92
2019-05-28T00:11:11.541Z,75.66
2019-05-28T00:13:40.787Z,74.32
2019-05-28T00:16:10.321Z,76.50
2019-05-28T00:18:39.544Z,78.18
2019-05-28T00:21:08.772Z,78.66
2019-05-28T00:23:37.948Z,76.75
2019-05-28T00:26:07.165Z,77.20
2019-05-28T00:28:36.349Z,77.06
2019-05-28T00:31:05.549Z,75.23
2019-05-28T00:33:34.775Z,75.16
2019-05-28T00:36:03.987Z,77.15
2019-05-28T00:38:33.220Z,76.02
2019-05-28T00:41:02.490Z,75.37
2019-05-28T00:43:31.725Z,74.86
2019-05-28T00:46:00.908Z,75.37
2019-05-28T00:48:30.133Z,76.35
2019-05-28T00:50:59.295Z,76.20
2019-05-28T00:53:28.554Z,75.78
2019-05-28T00:55:58.782Z,75.73
2019-05-28T00:58:28.611Z,75.84
2019-05-28T01:00:57.963Z,75.05
2019-05-28T01:03:27.202Z,74.75
2019-05-28T01:05:56.413Z,75.57
2019-05-28T01:08:25.593Z,75.47
2019-05-28T01:10:54.812Z,74.96
2019-05-28T01:13:24.049Z,74.90
2019-05-28T01:15:53.244Z,74.66
2019-05-28T01:18:22.493Z,75.26
2019-05-28T01:20:51.758Z,76.56
2019-05-28T01:23:20.954Z,77.04
2019-05-28T01:25:50.164Z,78.74
2019-05-28T01:28:19.380Z,77.25
2019-05-28T01:30:56.244Z,75.73
2019-05-28T01:33:19.584Z,75.02
2019-05-28T01:35:48.996Z,74.83
2019-05-28T01:38:18.172Z,75.36
2019-05-28T01:40:47.459Z,80.10
2019-05-28T01:43:16.669Z,83.50
2019-05-28T01:45:45.919Z,82.16
2019-05-28T01:48:15.091Z,78.79
2019-05-28T01:50:44.286Z,79.12
2019-05-28T01:53:13.514Z,82.43
2019-05-28T01:55:42.802Z,79.54
2019-05-28T01:58:11.995Z,78.13
2019-05-28T02:00:41.275Z,76.41
2019-05-28T02:03:10.493Z,76.88
2019-05-28T02:05:39.647Z,79.05
2019-05-28T02:08:08.951Z,78.91
2019-05-28T02:10:38.139Z,76.73
2019-05-28T02:13:07.316Z,75.77
2019-05-28T02:15:36.597Z,76.02
2019-05-28T02:18:05.842Z,75.81
2019-05-28T02:20:34.996Z,76.36
2019-05-28T02:23:05.596Z,78.41
2019-05-28T02:25:34.754Z,77.31
2019-05-28T02:28:03.945Z,76.70
2019-05-28T02:30:33.096Z,76.50
2019-05-28T02:33:02.362Z,77.54
2019-05-28T02:35:31.535Z,77.22
2019-05-28T02:38:00.820Z,77.21
2019-05-28T02:40:29.932Z,76.96
2019-05-28T02:42:59.350Z,77.36
2019-05-28T02:45:28.634Z,78.03
2019-05-28T02:47:57.892Z,77.33
2019-05-28T02:50:47.370Z,76.81
2019-05-28T02:53:16.647Z,77.28
2019-05-28T02:55:47.717Z,78.05
2019-05-28T02:58:19.753Z,77.69
2019-05-28T03:00:50.399Z,80.25
2019-05-28T03:03:22.955Z,80.80
2019-05-28T03:05:54.733Z,81.92
2019-05-28T03:08:26.247Z,82.03
2019-05-28T03:11:03.121Z,81.43
2019-05-28T03:13:27.031Z,81.66
2019-05-28T03:15:59.475Z,81.15
2019-05-28T03:18:30.272Z,80.17
2019-05-28T03:21:02.456Z,80.58
2019-05-28T03:23:33.692Z,81.92
2019-05-28T03:26:02.947Z,82.97
2019-05-28T03:28:32.630Z,83.01
2019-05-28T03:31:01.914Z,82.50
2019-05-28T03:33:31.271Z,82.43
2019-05-28T03:36:01.894Z,82.05
2019-05-28T03:38:32.674Z,81.80
2019-05-28T03:41:01.918Z,82.07
2019-05-28T03:43:31.102Z,82.12
2019-05-28T03:46:00.442Z,81.93
2019-05-28T03:48:29.742Z,80.39
2019-05-28T03:50:58.969Z,80.57
2019-05-28T03:53:28.171Z,80.33
2019-05-28T03:55:57.442Z,80.79
2019-05-28T03:58:26.610Z,80.08
2019-05-28T04:00:55.829Z,80.82
2019-05-28T04:03:25.012Z,81.12
2019-05-28T04:05:54.237Z,80.89
2019-05-28T04:08:23.459Z,81.59
2019-05-28T04:10:52.672Z,80.63
2019-05-28T04:13:21.855Z,83.15
2019-05-28T04:15:51.058Z,83.15
2019-05-28T04:18:20.246Z,82.71
2019-05-28T04:20:49.521Z,81.29
2019-05-28T04:23:18.930Z,83.25
2019-05-28T04:25:48.184Z,84.36
2019-05-28T04:28:17.426Z,82.80
2019-05-28T04:30:46.645Z,82.07
2019-05-28T04:33:15.820Z,80.36
2019-05-28T04:35:45.085Z,80.05
2019-05-28T04:38:14.302Z,82.61
2019-05-28T04:40:43.545Z,81.85
2019-05-28T04:43:12.792Z,81.53
2019-05-28T04:45:42.062Z,81.28
2019-05-28T04:48:11.309Z,80.26
2019-05-28T04:50:40.550Z,80.10
2019-05-28T04:53:09.827Z,80.17
2019-05-28T04:55:39.197Z,79.11
2019-05-28T04:58:08.503Z,80.97
2019-05-28T05:00:37.856Z,81.17
2019-05-28T05:03:07.088Z,80.88
2019-05-28T05:05:36.353Z,80.49
2019-05-28T05:08:05.577Z,80.93
2019-05-28T05:10:34.826Z,81.62
2019-05-28T05:13:04.031Z,80.54
2019-05-28T05:15:33.440Z,81.25
2019-05-28T05:18:02.817Z,80.08
2019-05-28T05:20:31.996Z,80.25
2019-05-28T05:23:01.212Z,80.91
2019-05-28T05:25:30.436Z,82.35
2019-05-28T05:27:59.629Z,81.10
2019-05-28T05:30:28.835Z,80.69
2019-05-28T05:33:18.277Z,79.50
2019-05-28T05:35:29.058Z,79.02
2019-05-28T05:37:58.331Z,79.42
2019-05-28T05:40:27.771Z,78.81
2019-05-28T05:42:56.991Z,78.43
2019-05-28T05:45:26.184Z,78.20
2019-05-28T05:47:55.412Z,80.23
2019-05-28T05:50:24.587Z,78.16
2019-05-28T05:52:53.786Z,78.20
2019-05-28T05:55:22.960Z,77.51
2019-05-28T05:57:52.180Z,79.89
2019-05-28T06:00:22.196Z,79.86
2019-05-28T06:02:51.425Z,80.93
2019-05-28T06:05:20.685Z,79.28
2019-05-28T06:07:49.952Z,79.58
2019-05-28T06:10:19.233Z,80.72
2019-05-28T06:12:48.457Z,79.33
2019-05-28T06:15:17.653Z,78.16
2019-05-28T06:17:46.829Z,78.99
2019-05-28T06:20:16.381Z,79.26
2019-05-28T06:22:45.592Z,79.70
2019-05-28T06:25:14.928Z,79.74
2019-05-28T06:27:44.133Z,80.28
2019-05-28T06:30:13.943Z,81.06
2019-05-28T06:32:43.129Z,78.61
2019-05-28T06:35:12.562Z,77.35
2019-05-28T06:37:41.760Z,77.83
2019-05-28T06:40:11.190Z,78.94
2019-05-28T06:42:40.677Z,80.48
2019-05-28T06:45:10.047Z,79.92
2019-05-28T06:47:43.888Z,79.32
2019-05-28T06:50:12.237Z,80.22
2019-05-28T06:52:41.901Z,79.36
2019-05-28T06:55:11.316Z,78.03
2019-05-28T06:57:40.524Z,78.42
2019-05-28T07:00:10.362Z,76.48
2019-05-28T07:02:39.601Z,76.07
2019-05-28T07:05:09.170Z,75.36
2019-05-28T07:07:38.416Z,78.47
2019-05-28T07:10:08.205Z,78.14
2019-05-28T07:12:37.452Z,78.53
2019-05-28T07:15:07.602Z,76.40
2019-05-28T07:17:36.800Z,75.84
2019-05-28T07:20:06.785Z,76.39
2019-05-28T07:22:36.120Z,75.34
2019-05-28T07:25:05.614Z,73.08
2019-05-28T07:27:34.846Z,75.60
2019-05-28T07:30:04.318Z,74.69
2019-05-28T07:32:33.551Z,75.30
2019-05-28T07:35:03.107Z,78.91
2019-05-28T07:37:32.457Z,78.67
2019-05-28T07:40:01.688Z,77.86
2019-05-28T07:42:33.063Z,75.71
2019-05-28T07:45:02.210Z,76.62
2019-05-28T07:47:31.545Z,79.69
2019-05-28T07:50:00.721Z,81.57
2019-05-28T07:52:29.972Z,80.93
2019-05-28T07:54:59.213Z,80.13
2019-05-28T07:57:28.457Z,80.33
2019-05-28T07:59:57.699Z,81.08
2019-05-28T08:02:26.950Z,85.58
2019-05-28T08:04:56.150Z,86.77
2019-05-28T08:07:25.450Z,87.60
2019-05-28T08:09:54.622Z,83.58
2019-05-28T08:12:23.826Z,85.21
2019-05-28T08:14:53.032Z,84.34
2019-05-28T08:17:22.240Z,81.63
2019-05-28T08:19:51.442Z,79.88
2019-05-28T08:22:20.655Z,80.13
2019-05-28T08:24:49.882Z,79.72
2019-05-28T08:27:19.176Z,78.00
2019-05-28T08:29:48.355Z,77.68
2019-05-28T08:32:17.622Z,76.52
2019-05-28T08:35:02.139Z,76.93
2019-05-28T08:37:17.862Z,74.97
2019-05-28T08:39:47.052Z,76.08
2019-05-28T08:42:16.261Z,75.44
2019-05-28T08:44:45.515Z,76.20
2019-05-28T08:47:14.780Z,74.20
2019-05-28T08:49:44.013Z,76.13
2019-05-28T08:52:13.204Z,76.62
2019-05-28T08:54:42.421Z,71.90
2019-05-28T08:57:11.598Z,71.13
2019-05-28T08:59:40.796Z,69.81
2019-05-28T09:02:26.315Z,68.85
2019-05-28T09:04:41.174Z,70.79
2019-05-28T09:07:10.355Z,69.69
2019-05-28T09:09:39.575Z,71.24
2019-05-28T09:12:09.719Z,69.14
2019-05-28T09:14:54.984Z,70.51
2019-05-28T09:17:10.107Z,69.80
2019-05-28T09:19:39.381Z,69.80
2019-05-28T09:22:24.419Z,68.14
2019-05-28T09:24:39.717Z,68.13
2019-05-28T09:27:09.002Z,67.69
2019-05-28T09:29:38.244Z,65.28
2019-05-28T09:32:07.578Z,67.31
2019-05-28T09:34:36.776Z,66.60
2019-05-28T09:37:05.952Z,67.49
2019-05-28T09:39:35.257Z,66.43
2019-05-28T09:42:04.597Z,66.82
2019-05-28T09:44:33.806Z,66.19
2019-05-28T09:47:03.041Z,66.68
2019-05-28T09:49:32.243Z,64.79
2019-05-28T09:52:01.447Z,64.30
2019-05-28T09:54:30.709Z,61.97
2019-05-28T09:56:59.897Z,63.74
2019-05-28T09:59:41.040Z,63.82
2019-05-28T10:02:00.133Z,61.90
2019-05-28T10:04:45.678Z,62.44
2019-05-28T10:07:00.402Z,61.35
2019-05-28T10:09:29.574Z,59.63
2019-05-28T10:11:58.890Z,57.90
2019-05-28T10:14:28.125Z,57.90
2019-05-28T10:16:57.390Z,58.66
2019-05-28T10:19:26.629Z,57.43
2019-05-28T10:21:55.978Z,58.56
2019-05-28T10:24:25.195Z,56.91
2019-05-28T10:26:54.453Z,56.42
2019-05-28T10:29:23.681Z,57.81
2019-05-28T10:31:52.866Z,57.30
2019-05-28T10:34:22.067Z,55.88
2019-05-28T10:36:51.322Z,54.95
2019-05-28T10:39:20.509Z,55.43
2019-05-28T10:41:49.708Z,54.02
2019-05-28T10:44:18.913Z,56.04
2019-05-28T10:46:48.150Z,55.43
2019-05-28T10:49:17.404Z,54.52
2019-05-28T10:51:46.623Z,54.21
2019-05-28T10:54:15.802Z,53.49
2019-05-28T10:56:45.073Z,54.63
2019-05-28T10:59:14.272Z,53.71
2019-05-28T11:01:43.506Z,55.63
2019-05-28T11:04:12.716Z,53.42
2019-05-28T11:06:51.547Z,53.11
2019-05-28T11:09:12.995Z,54.60
2019-05-28T11:11:42.267Z,53.24
2019-05-28T11:14:11.571Z,53.22
2019-05-28T11:16:40.885Z,54.69
2019-05-28T11:19:10.085Z,52.67
2019-05-28T11:21:39.298Z,54.61
2019-05-28T11:24:08.469Z,53.67
2019-05-28T11:26:37.660Z,55.55
2019-05-28T11:29:06.884Z,51.69
2019-05-28T11:31:36.090Z,50.09
2019-05-28T11:34:05.650Z,51.04
2019-05-28T11:36:34.846Z,49.11
2019-05-28T11:39:06.383Z,50.05
2019-05-28T11:41:42.052Z,49.03
2019-05-28T11:44:06.902Z,51.05
2019-05-28T11:46:36.217Z,51.15
2019-05-28T11:49:05.591Z,49.41
2019-05-28T11:51:34.777Z,47.89
2019-05-28T11:54:04.103Z,49.07
2019-05-28T11:56:33.245Z,47.18
2019-05-28T11:59:02.477Z,46.46
2019-05-28T12:01:35.130Z,44.61
2019-05-28T12:04:02.624Z,45.88
2019-05-28T12:06:37.941Z,45.65
2019-05-28T12:09:02.921Z,45.05
2019-05-28T12:11:32.264Z,44.39
2019-05-28T12:14:01.581Z,44.04
2019-05-28T12:16:30.769Z,43.51
2019-05-28T12:19:00.033Z,41.88
2019-05-28T12:21:29.208Z,41.84
2019-05-28T12:23:58.472Z,42.75
2019-05-28T12:26:27.690Z,42.50
2019-05-28T12:28:56.962Z,41.55
2019-05-28T12:31:26.394Z,41.72
2019-05-28T12:33:55.634Z,40.63
2019-05-28T12:36:24.799Z,42.94
2019-05-28T12:38:54.859Z,42.70
2019-05-28T12:41:24.078Z,41.96
2019-05-28T12:43:53.278Z,41.24
2019-05-28T12:46:22.728Z,41.23
2019-05-28T12:48:51.987Z,41.29
2019-05-28T12:51:21.177Z,40.83
2019-05-28T12:53:51.509Z,42.41
2019-05-28T12:56:21.082Z,41.52
2019-05-28T12:58:50.405Z,42.24
2019-05-28T13:01:19.673Z,39.84
2019-05-28T13:03:51.875Z,40.19
2019-05-28T13:06:20.136Z,42.23
2019-05-28T13:08:49.324Z,40.71
2019-05-28T13:11:18.597Z,37.27
2019-05-28T13:13:47.799Z,38.35
2019-05-28T13:16:17.077Z,40.44
2019-05-28T13:18:46.292Z,40.06
2019-05-28T13:21:15.535Z,40.71
2019-05-28T13:23:44.771Z,42.36
2019-05-28T13:26:14.835Z,42.68
2019-05-28T13:28:44.131Z,42.12
2019-05-28T13:31:13.412Z,42.05
2019-05-28T13:33:42.654Z,39.20
2019-05-28T13:36:11.912Z,42.40
2019-05-28T13:38:42.826Z,43.03
2019-05-28T13:41:12.245Z,43.22
2019-05-28T13:43:41.474Z,42.42
2019-05-28T13:46:10.731Z,42.48
2019-05-28T13:48:40.037Z,45.42
2019-05-28T13:51:09.265Z,47.00
2019-05-28T13:53:38.454Z,46.26
2019-05-28T13:56:07.718Z,47.11
2019-05-28T13:58:36.993Z,45.60
2019-05-28T14:01:06.261Z,44.32
2019-05-28T14:03:35.465Z,41.04
2019-05-28T14:06:04.771Z,41.10
2019-05-28T14:08:45.470Z,41.51
2019-05-28T14:11:04.954Z,40.22
2019-05-28T14:13:34.333Z,38.69
2019-05-28T14:16:04.210Z,40.64
2019-05-28T14:18:33.460Z,40.47
2019-05-28T14:21:02.689Z,40.32
2019-05-28T14:23:31.921Z,40.46
2019-05-28T14:26:01.173Z,39.34
2019-05-28T14:28:30.547Z,40.65
2019-05-28T14:31:00.700Z,38.95
2019-05-28T14:33:29.972Z,39.73
2019-05-28T14:35:59.242Z,38.69
2019-05-28T14:38:28.465Z,37.40
2019-05-28T14:40:57.762Z,38.16
2019-05-28T14:43:27.017Z,38.41
2019-05-28T14:45:56.246Z,38.02
2019-05-28T14:48:25.466Z,38.68
2019-05-28T14:50:54.965Z,40.05
2019-05-28T14:53:24.203Z,39.28
2019-05-28T14:55:53.626Z,37.30
2019-05-28T14:58:22.973Z,37.02
2019-05-28T15:00:52.250Z,38.75
2019-05-28T15:03:21.425Z,38.13
2019-05-28T15:05:50.664Z,37.93
2019-05-28T15:08:19.966Z,38.43
2019-05-28T15:10:49.175Z,38.58
2019-05-28T15:13:18.405Z,38.90
2019-05-28T15:15:47.688Z,38.97
2019-05-28T15:18:16.889Z,38.48
2019-05-28T15:20:46.101Z,38.07
2019-05-28T15:23:15.311Z,39.47
2019-05-28T15:25:44.482Z,39.95
2019-05-28T15:28:13.722Z,39.60
2019-05-28T15:30:42.954Z,40.27
2019-05-28T15:33:12.216Z,38.60
2019-05-28T15:35:41.448Z,39.01
2019-05-28T15:38:10.603Z,40.75
2019-05-28T15:40:39.802Z,45.28
2019-05-28T15:43:09.022Z,43.89
2019-05-28T15:45:38.250Z,42.52
2019-05-28T15:48:07.507Z,43.13
2019-05-28T15:50:36.758Z,43.00
2019-05-28T15:53:05.968Z,45.11
2019-05-28T15:55:35.184Z,44.95
2019-05-28T15:58:04.389Z,44.54
2019-05-28T16:00:33.671Z,45.44
2019-05-28T16:03:02.886Z,46.99
2019-05-28T16:05:32.128Z,44.77
2019-05-28T16:08:01.293Z,45.19
2019-05-28T16:10:30.506Z,44.58
2019-05-28T16:12:59.782Z,44.23
2019-05-28T16:15:29.030Z,44.57
2019-05-28T16:17:58.325Z,45.45
2019-05-28T16:20:27.671Z,46.06
2019-05-28T16:22:56.928Z,46.77
2019-05-28T16:25:26.173Z,48.00
2019-05-28T16:27:55.575Z,47.46
2019-05-28T16:30:25.149Z,47.86
2019-05-28T16:32:54.384Z,47.99
2019-05-28T16:35:23.702Z,46.14
2019-05-28T16:37:52.959Z,46.67
2019-05-28T16:40:22.294Z,45.72
2019-05-28T16:42:51.558Z,44.68
2019-05-28T16:45:21.178Z,45.21
2019-05-28T16:47:50.528Z,45.76
2019-05-28T16:50:19.970Z,46.90
2019-05-28T16:52:49.162Z,45.43
2019-05-28T16:55:18.539Z,47.13
2019-05-28T16:57:47.784Z,46.40
2019-05-28T17:00:18.529Z,47.82
2019-05-28T17:02:47.817Z,45.95
2019-05-28T17:05:17.708Z,46.35
2019-05-28T17:07:46.964Z,47.03
2019-05-28T17:10:31.552Z,45.67
2019-05-28T17:12:47.412Z,45.11
2019-05-28T17:15:17.227Z,44.44
2019-05-28T17:17:46.830Z,45.54
2019-05-28T17:20:17.116Z,44.73
2019-05-28T17:22:46.445Z,44.43
2019-05-28T17:25:15.992Z,44.02
2019-05-28T17:27:45.242Z,44.40
2019-05-28T17:30:19.161Z,43.41
2019-05-28T17:32:46.409Z,43.38
2019-05-28T17:35:15.945Z,43.32
2019-05-28T17:37:45.172Z,44.09
2019-05-28T17:40:14.480Z,44.61
2019-05-28T17:42:43.752Z,44.26
2019-05-28T17:45:13.412Z,43.93
2019-05-28T17:47:44.369Z,43.93
2019-05-28T17:50:13.950Z,45.01
2019-05-28T17:52:43.318Z,44.92
2019-05-28T17:55:12.778Z,46.26
2019-05-28T17:57:41.991Z,45.83
2019-05-28T18:00:11.481Z,44.97
2019-05-28T18:02:41.153Z,45.94
2019-05-28T18:05:10.709Z,45.33
2019-05-28T18:07:39.924Z,46.28
2019-05-28T18:10:10.428Z,46.43
2019-05-28T18:12:39.729Z,44.87
2019-05-28T18:15:09.419Z,45.21
2019-05-28T18:17:38.922Z,44.82
2019-05-28T18:20:09.229Z,45.51
2019-05-28T18:22:38.482Z,45.55
2019-05-28T18:25:07.961Z,44.90
2019-05-28T18:27:37.347Z,44.81
2019-05-28T18:30:06.974Z,44.34
2019-05-28T18:32:36.399Z,45.43
2019-05-28T18:35:06.444Z,46.64
2019-05-28T18:37:35.792Z,47.77
2019-05-28T18:40:06.227Z,48.20
2019-05-28T18:42:35.489Z,46.35
2019-05-28T18:45:05.208Z,47.32
2019-05-28T18:47:34.587Z,48.33
2019-05-28T18:50:04.303Z,50.44
2019-05-28T18:52:33.510Z,50.42
2019-05-28T18:55:03.995Z,50.16
2019-05-28T18:57:33.656Z,50.86
2019-05-28T19:00:02.936Z,50.78
2019-05-28T19:02:32.295Z,52.57
2019-05-28T19:05:01.539Z,52.99
2019-05-28T19:07:30.759Z,52.47
2019-05-28T19:10:00.068Z,52.14
2019-05-28T19:12:29.286Z,52.20
2019-05-28T19:14:58.553Z,52.53
2019-05-28T19:17:27.808Z,53.52
2019-05-28T19:19:57.069Z,50.90
2019-05-28T19:22:26.290Z,50.21
2019-05-28T19:24:57.383Z,49.87
2019-05-28T19:27:26.858Z,50.09
2019-05-28T19:29:56.331Z,49.89
2019-05-28T19:32:25.562Z,50.33
2019-05-28T19:34:55.044Z,50.71
2019-05-28T19:37:24.463Z,51.52
2019-05-28T19:39:53.932Z,51.08
2019-05-28T19:42:23.229Z,50.52
2019-05-28T19:44:52.565Z,50.51
2019-05-28T19:47:21.866Z,51.29
2019-05-28T19:49:51.162Z,50.96
2019-05-28T19:52:20.414Z,52.15
2019-05-28T19:54:49.626Z,52.15
2019-05-28T19:57:18.874Z,52.05
2019-05-28T19:59:48.176Z,52.25
2019-05-28T20:02:17.461Z,53.21
2019-05-28T20:04:46.684Z,53.66
2019-05-28T20:07:15.883Z,55.16
2019-05-28T20:09:45.224Z,54.26
2019-05-28T20:12:14.525Z,55.71
2019-05-28T20:14:43.873Z,55.88
2019-05-28T20:17:13.402Z,53.81
2019-05-28T20:19:42.695Z,53.43
2019-05-28T20:22:12.252Z,53.70
2019-05-28T20:24:41.562Z,53.42
2019-05-28T20:27:10.793Z,54.13
2019-05-28T20:29:40.065Z,54.28
2019-05-28T20:32:09.507Z,55.11
2019-05-28T20:34:38.928Z,54.17
2019-05-28T20:37:08.229Z,54.15
2019-05-28T20:39:37.489Z,55.03
2019-05-28T20:42:06.784Z,56.48
2019-05-28T20:44:36.025Z,54.64
2019-05-28T20:47:06.839Z,55.46
2019-05-28T20:49:36.333Z,54.67
2019-05-28T20:52:05.638Z,54.44
2019-05-28T20:54:34.816Z,54.54
2019-05-28T20:57:04.031Z,56.13
2019-05-28T20:59:33.361Z,55.89
2019-05-28T21:02:02.635Z,56.18
2019-05-28T21:04:31.888Z,56.17
2019-05-28T21:07:01.159Z,56.54
2019-05-28T21:09:30.380Z,56.28
2019-05-28T21:11:59.611Z,56.35
2019-05-28T21:14:28.878Z,57.50
2019-05-28T21:16:59.191Z,57.02
2019-05-28T21:19:28.480Z,56.15
2019-05-28T21:21:57.894Z,56.91
2019-05-28T21:24:27.173Z,58.48
2019-05-28T21:26:56.525Z,58.08
2019-05-28T21:29:25.798Z,58.85
2019-05-28T21:31:55.039Z,60.75
2019-05-28T21:34:24.245Z,63.51
2019-05-28T21:36:53.440Z,65.31
2019-05-28T21:39:22.711Z,66.69
2019-05-28T21:41:51.950Z,66.72
2019-05-28T21:44:21.137Z,68.58
2019-05-28T21:46:50.415Z,67.25
2019-05-28T21:49:19.698Z,66.46
2019-05-28T21:51:48.927Z,65.66
2019-05-28T21:54:18.138Z,67.01
2019-05-28T21:56:47.361Z,66.52
2019-05-28T21:59:16.615Z,66.07
2019-05-28T22:01:45.956Z,68.42
2019-05-28T22:04:15.175Z,67.35
2019-05-28T22:06:44.689Z,66.79
2019-05-28T22:09:13.895Z,65.72
2019-05-28T22:11:43.308Z,65.50
2019-05-28T22:14:12.890Z,64.88
2019-05-28T22:16:42.041Z,66.94
2019-05-28T22:19:11.320Z,68.15
2019-05-28T22:21:40.518Z,70.59
2019-05-28T22:24:09.705Z,72.25
2019-05-28T22:26:38.970Z,70.34
2019-05-28T22:29:08.148Z,69.08
2019-05-28T22:31:37.386Z,70.37
2019-05-28T22:34:07.304Z,68.39
2019-05-28T22:36:36.680Z,69.18
2019-05-28T22:39:08.695Z,67.00
2019-05-28T22:41:39.495Z,65.21
2019-05-28T22:44:08.902Z,65.36
2019-05-28T22:46:38.356Z,64.91
2019-05-28T22:49:07.650Z,64.17
2019-05-28T22:51:36.899Z,64.90
2019-05-28T22:54:06.355Z,65.15
2019-05-28T22:56:35.600Z,65.71
2019-05-28T22:59:04.766Z,66.56
2019-05-28T23:01:33.984Z,70.50
2019-05-28T23:04:03.191Z,74.00
2019-05-28T23:06:32.360Z,72.56
2019-05-28T23:09:01.526Z,74.12
2019-05-28T23:11:30.728Z,73.79
2019-05-28T23:13:59.939Z,73.40
2019-05-28T23:16:29.150Z,71.29
2019-05-28T23:18:58.294Z,71.38
2019-05-28T23:21:27.564Z,70.11
2019-05-28T23:23:56.827Z,73.30
2019-05-28T23:26:26.300Z,72.49
2019-05-28T23:28:55.496Z,71.54
2019-05-28T23:31:24.712Z,71.91
2019-05-28T23:33:53.891Z,71.60
2019-05-28T23:36:23.118Z,72.61
2019-05-28T23:38:52.398Z,72.54
2019-05-28T23:41:21.569Z,74.26
2019-05-28T23:44:01.409Z,74.07
2019-05-28T23:46:21.687Z,74.37
2019-05-28T23:48:50.964Z,72.31
2019-05-28T23:51:20.152Z,69.79
2019-05-28T23:53:49.351Z,68.25
2019-05-28T23:56:18.581Z,67.74
2019-05-28T23:58:47.800Z,68.16
